sensor_id;sensor_type;location;lat;lon;timestamp;P1;durP1;ratioP1;P2;durP2;ratioP2
2610;SDS011;5612;51.134;17.058;2022-10-31T00:01:32;39.03;;;34.87;;
2610;SDS011;5612;51.134;17.058;2022-10-31T00:04:03;37.77;;;33.97;;
2610;SDS011;5612;51.134;17.058;2022-10-31T00:06:33;35.57;;;31.87;;
2610;SDS011;5612;51.134;17.058;2022-10-31T00:09:02;36.47;;;32.70;;
2610;SDS011;5612;51.134;17.058;2022-10-31T00:11:32;35.07;;;31.37;;
2610;SDS011;5612;51.134;17.058;2022-10-31T00:14:00;36.43;;;32.67;;
2610;SDS011;5612;51.134;17.058;2022-10-31T00:16:29;35.17;;;31.67;;
2610;SDS011;5612;51.134;17.058;2022-10-31T00:18:59;45.30;;;31.53;;
2610;SDS011;5612;51.134;17.058;2022-10-31T00:21:31;33.20;;;29.90;;
2610;SDS011;5612;51.134;17.058;2022-10-31T00:24:00;35.20;;;31.60;;
2610;SDS011;5612;51.134;17.058;2022-10-31T00:26:30;37.67;;;31.70;;
2610;SDS011;5612;51.134;17.058;2022-10-31T00:28:59;38.03;;;33.97;;
2610;SDS011;5612;51.134;17.058;2022-10-31T00:31:28;33.83;;;30.20;;
2610;SDS011;5612;51.134;17.058;2022-10-31T00:33:57;36.47;;;32.93;;
2610;SDS011;5612;51.134;17.058;2022-10-31T00:36:26;35.83;;;31.40;;
2610;SDS011;5612;51.134;17.058;2022-10-31T00:38:57;39.80;;;35.57;;
2610;SDS011;5612;51.134;17.058;2022-10-31T00:41:27;38.97;;;34.80;;
2610;SDS011;5612;51.134;17.058;2022-10-31T00:43:56;40.50;;;36.30;;
2610;SDS011;5612;51.134;17.058;2022-10-31T00:46:25;36.83;;;32.83;;
2610;SDS011;5612;51.134;17.058;2022-10-31T00:48:54;37.13;;;33.23;;
2610;SDS011;5612;51.134;17.058;2022-10-31T00:51:23;37.47;;;33.63;;
2610;SDS011;5612;51.134;17.058;2022-10-31T00:53:51;38.37;;;34.57;;
2610;SDS011;5612;51.134;17.058;2022-10-31T00:56:22;36.43;;;32.77;;
2610;SDS011;5612;51.134;17.058;2022-10-31T00:58:50;36.40;;;31.87;;
2610;SDS011;5612;51.134;17.058;2022-10-31T01:01:19;36.80;;;33.40;;
2610;SDS011;5612;51.134;17.058;2022-10-31T01:03:48;38.23;;;34.80;;
2610;SDS011;5612;51.134;17.058;2022-10-31T01:06:17;38.80;;;35.13;;
2610;SDS011;5612;51.134;17.058;2022-10-31T01:08:46;37.23;;;33.80;;
2610;SDS011;5612;51.134;17.058;2022-10-31T01:11:16;40.40;;;36.30;;
2610;SDS011;5612;51.134;17.058;2022-10-31T01:13:49;36.47;;;32.87;;
2610;SDS011;5612;51.134;17.058;2022-10-31T01:16:20;34.77;;;31.37;;
2610;SDS011;5612;51.134;17.058;2022-10-31T01:18:51;35.53;;;32.27;;
2610;SDS011;5612;51.134;17.058;2022-10-31T01:21:21;37.80;;;34.40;;
2610;SDS011;5612;51.134;17.058;2022-10-31T01:23:52;34.33;;;31.00;;
2610;SDS011;5612;51.134;17.058;2022-10-31T01:26:22;34.43;;;31.00;;
2610;SDS011;5612;51.134;17.058;2022-10-31T01:28:54;34.97;;;31.03;;
2610;SDS011;5612;51.134;17.058;2022-10-31T01:31:25;34.60;;;31.10;;
2610;SDS011;5612;51.134;17.058;2022-10-31T01:33:55;35.73;;;32.13;;
2610;SDS011;5612;51.134;17.058;2022-10-31T01:36:25;41.90;;;33.77;;
2610;SDS011;5612;51.134;17.058;2022-10-31T01:38:56;32.20;;;28.93;;
2610;SDS011;5612;51.134;17.058;2022-10-31T01:41:27;33.20;;;29.93;;
2610;SDS011;5612;51.134;17.058;2022-10-31T01:43:59;34.03;;;30.60;;
2610;SDS011;5612;51.134;17.058;2022-10-31T01:46:31;34.07;;;30.63;;
2610;SDS011;5612;51.134;17.058;2022-10-31T01:49:02;31.70;;;28.50;;
2610;SDS011;5612;51.134;17.058;2022-10-31T01:51:33;33.33;;;30.33;;
2610;SDS011;5612;51.134;17.058;2022-10-31T01:54:06;32.20;;;29.20;;
2610;SDS011;5612;51.134;17.058;2022-10-31T01:56:40;31.57;;;28.47;;
2610;SDS011;5612;51.134;17.058;2022-10-31T01:59:15;32.77;;;29.50;;
2610;SDS011;5612;51.134;17.058;2022-10-31T02:01:47;33.10;;;29.90;;
2610;SDS011;5612;51.134;17.058;2022-10-31T02:04:18;32.83;;;29.43;;
2610;SDS011;5612;51.134;17.058;2022-10-31T02:06:51;32.27;;;28.93;;
2610;SDS011;5612;51.134;17.058;2022-10-31T02:09:23;31.27;;;28.17;;
2610;SDS011;5612;51.134;17.058;2022-10-31T02:11:54;31.73;;;28.47;;
2610;SDS011;5612;51.134;17.058;2022-10-31T02:14:27;31.00;;;27.80;;
2610;SDS011;5612;51.134;17.058;2022-10-31T02:16:58;30.43;;;27.57;;
2610;SDS011;5612;51.134;17.058;2022-10-31T02:19:27;30.43;;;27.27;;
2610;SDS011;5612;51.134;17.058;2022-10-31T02:22:04;30.60;;;27.60;;
2610;SDS011;5612;51.134;17.058;2022-10-31T02:24:44;31.27;;;27.90;;
2610;SDS011;5612;51.134;17.058;2022-10-31T02:27:31;31.30;;;28.20;;
2610;SDS011;5612;51.134;17.058;2022-10-31T02:30:15;30.17;;;27.07;;
2610;SDS011;5612;51.134;17.058;2022-10-31T02:32:52;31.60;;;27.93;;
2610;SDS011;5612;51.134;17.058;2022-10-31T02:35:35;29.20;;;25.60;;
2610;SDS011;5612;51.134;17.058;2022-10-31T02:38:12;30.60;;;27.63;;
2610;SDS011;5612;51.134;17.058;2022-10-31T02:40:51;35.00;;;29.40;;
2610;SDS011;5612;51.134;17.058;2022-10-31T02:43:29;32.03;;;28.87;;
2610;SDS011;5612;51.134;17.058;2022-10-31T02:46:04;33.20;;;29.80;;
2610;SDS011;5612;51.134;17.058;2022-10-31T02:48:40;33.30;;;29.97;;
2610;SDS011;5612;51.134;17.058;2022-10-31T02:51:11;34.27;;;31.00;;
2610;SDS011;5612;51.134;17.058;2022-10-31T02:53:41;32.13;;;28.83;;
2610;SDS011;5612;51.134;17.058;2022-10-31T02:56:12;32.30;;;29.00;;
2610;SDS011;5612;51.134;17.058;2022-10-31T02:58:42;31.20;;;28.00;;
2610;SDS011;5612;51.134;17.058;2022-10-31T03:04:16;33.73;;;30.23;;
2610;SDS011;5612;51.134;17.058;2022-10-31T03:06:57;33.60;;;30.33;;
2610;SDS011;5612;51.134;17.058;2022-10-31T03:09:33;31.43;;;28.20;;
2610;SDS011;5612;51.134;17.058;2022-10-31T03:12:10;32.90;;;29.70;;
2610;SDS011;5612;51.134;17.058;2022-10-31T03:14:46;32.53;;;29.10;;
2610;SDS011;5612;51.134;17.058;2022-10-31T03:17:20;32.70;;;29.23;;
2610;SDS011;5612;51.134;17.058;2022-10-31T03:19:55;34.07;;;30.63;;
2610;SDS011;5612;51.134;17.058;2022-10-31T03:22:28;33.23;;;29.70;;
2610;SDS011;5612;51.134;17.058;2022-10-31T03:25:00;34.80;;;28.67;;
2610;SDS011;5612;51.134;17.058;2022-10-31T03:27:32;32.67;;;29.33;;
2610;SDS011;5612;51.134;17.058;2022-10-31T03:30:04;32.87;;;29.33;;
2610;SDS011;5612;51.134;17.058;2022-10-31T03:32:35;31.63;;;28.60;;
2610;SDS011;5612;51.134;17.058;2022-10-31T03:35:09;32.40;;;29.03;;
2610;SDS011;5612;51.134;17.058;2022-10-31T03:37:40;33.60;;;29.47;;
2610;SDS011;5612;51.134;17.058;2022-10-31T03:40:11;32.00;;;28.40;;
2610;SDS011;5612;51.134;17.058;2022-10-31T03:42:43;33.50;;;30.23;;
2610;SDS011;5612;51.134;17.058;2022-10-31T03:45:20;36.33;;;29.90;;
2610;SDS011;5612;51.134;17.058;2022-10-31T03:47:51;33.93;;;30.57;;
2610;SDS011;5612;51.134;17.058;2022-10-31T03:50:23;32.63;;;29.20;;
2610;SDS011;5612;51.134;17.058;2022-10-31T03:52:55;34.40;;;31.00;;
2610;SDS011;5612;51.134;17.058;2022-10-31T03:55:28;33.13;;;29.83;;
2610;SDS011;5612;51.134;17.058;2022-10-31T03:58:02;34.47;;;30.97;;
2610;SDS011;5612;51.134;17.058;2022-10-31T04:00:34;33.83;;;30.20;;
2610;SDS011;5612;51.134;17.058;2022-10-31T04:03:10;33.30;;;29.80;;
2610;SDS011;5612;51.134;17.058;2022-10-31T04:05:44;34.57;;;31.20;;
2610;SDS011;5612;51.134;17.058;2022-10-31T04:08:17;31.03;;;27.80;;
2610;SDS011;5612;51.134;17.058;2022-10-31T04:10:49;34.60;;;30.90;;
2610;SDS011;5612;51.134;17.058;2022-10-31T04:13:20;33.17;;;30.20;;
2610;SDS011;5612;51.134;17.058;2022-10-31T04:15:54;35.57;;;31.97;;
2610;SDS011;5612;51.134;17.058;2022-10-31T04:18:23;41.93;;;31.00;;
2610;SDS011;5612;51.134;17.058;2022-10-31T04:21:00;31.60;;;28.53;;
2610;SDS011;5612;51.134;17.058;2022-10-31T04:23:31;31.60;;;28.27;;
2610;SDS011;5612;51.134;17.058;2022-10-31T04:26:01;33.57;;;29.70;;
2610;SDS011;5612;51.134;17.058;2022-10-31T04:28:30;31.10;;;27.97;;
2610;SDS011;5612;51.134;17.058;2022-10-31T04:31:00;33.40;;;29.90;;
2610;SDS011;5612;51.134;17.058;2022-10-31T04:33:28;31.77;;;28.50;;
2610;SDS011;5612;51.134;17.058;2022-10-31T04:35:57;36.30;;;28.77;;
2610;SDS011;5612;51.134;17.058;2022-10-31T04:38:27;31.30;;;28.40;;
2610;SDS011;5612;51.134;17.058;2022-10-31T04:40:56;32.13;;;28.83;;
2610;SDS011;5612;51.134;17.058;2022-10-31T04:43:25;31.10;;;28.17;;
2610;SDS011;5612;51.134;17.058;2022-10-31T04:45:53;30.97;;;27.90;;
2610;SDS011;5612;51.134;17.058;2022-10-31T04:48:22;33.33;;;28.27;;
2610;SDS011;5612;51.134;17.058;2022-10-31T04:50:51;31.60;;;28.20;;
2610;SDS011;5612;51.134;17.058;2022-10-31T04:53:21;31.40;;;27.97;;
2610;SDS011;5612;51.134;17.058;2022-10-31T04:55:49;33.50;;;30.20;;
2610;SDS011;5612;51.134;17.058;2022-10-31T04:58:18;34.90;;;29.50;;
2610;SDS011;5612;51.134;17.058;2022-10-31T05:00:47;33.33;;;28.73;;
2610;SDS011;5612;51.134;17.058;2022-10-31T05:03:19;32.60;;;29.27;;
2610;SDS011;5612;51.134;17.058;2022-10-31T05:05:48;33.40;;;30.00;;
2610;SDS011;5612;51.134;17.058;2022-10-31T05:08:16;33.67;;;29.43;;
2610;SDS011;5612;51.134;17.058;2022-10-31T05:10:46;36.83;;;32.93;;
2610;SDS011;5612;51.134;17.058;2022-10-31T05:13:15;37.30;;;33.07;;
2610;SDS011;5612;51.134;17.058;2022-10-31T05:15:44;39.20;;;34.93;;
2610;SDS011;5612;51.134;17.058;2022-10-31T05:18:13;38.67;;;34.00;;
2610;SDS011;5612;51.134;17.058;2022-10-31T05:20:41;39.10;;;34.73;;
2610;SDS011;5612;51.134;17.058;2022-10-31T05:23:10;40.70;;;36.27;;
2610;SDS011;5612;51.134;17.058;2022-10-31T05:25:39;40.53;;;36.30;;
2610;SDS011;5612;51.134;17.058;2022-10-31T05:28:10;39.50;;;33.97;;
2610;SDS011;5612;51.134;17.058;2022-10-31T05:30:38;36.80;;;31.70;;
2610;SDS011;5612;51.134;17.058;2022-10-31T05:33:07;40.27;;;31.40;;
2610;SDS011;5612;51.134;17.058;2022-10-31T05:35:36;35.53;;;31.30;;
2610;SDS011;5612;51.134;17.058;2022-10-31T05:38:04;35.37;;;31.47;;
2610;SDS011;5612;51.134;17.058;2022-10-31T05:40:33;33.90;;;30.50;;
2610;SDS011;5612;51.134;17.058;2022-10-31T05:43:02;31.57;;;28.10;;
2610;SDS011;5612;51.134;17.058;2022-10-31T05:45:32;30.03;;;27.23;;
2610;SDS011;5612;51.134;17.058;2022-10-31T05:48:01;31.07;;;27.87;;
2610;SDS011;5612;51.134;17.058;2022-10-31T05:50:31;30.90;;;27.53;;
2610;SDS011;5612;51.134;17.058;2022-10-31T05:53:00;29.90;;;26.83;;
2610;SDS011;5612;51.134;17.058;2022-10-31T05:55:31;31.00;;;27.40;;
2610;SDS011;5612;51.134;17.058;2022-10-31T05:58:00;31.50;;;27.37;;
2610;SDS011;5612;51.134;17.058;2022-10-31T06:00:29;30.20;;;27.10;;
2610;SDS011;5612;51.134;17.058;2022-10-31T06:03:02;29.47;;;26.40;;
2610;SDS011;5612;51.134;17.058;2022-10-31T06:05:37;28.67;;;25.70;;
2610;SDS011;5612;51.134;17.058;2022-10-31T06:08:06;26.90;;;24.30;;
2610;SDS011;5612;51.134;17.058;2022-10-31T06:10:34;28.40;;;25.37;;
2610;SDS011;5612;51.134;17.058;2022-10-31T06:13:03;30.20;;;24.63;;
2610;SDS011;5612;51.134;17.058;2022-10-31T06:15:34;26.37;;;23.70;;
2610;SDS011;5612;51.134;17.058;2022-10-31T06:18:03;27.83;;;24.77;;
2610;SDS011;5612;51.134;17.058;2022-10-31T06:20:36;27.90;;;24.40;;
2610;SDS011;5612;51.134;17.058;2022-10-31T06:23:04;27.30;;;24.57;;
2610;SDS011;5612;51.134;17.058;2022-10-31T06:25:33;25.97;;;22.50;;
2610;SDS011;5612;51.134;17.058;2022-10-31T06:28:02;26.77;;;23.97;;
2610;SDS011;5612;51.134;17.058;2022-10-31T06:30:30;26.03;;;23.50;;
2610;SDS011;5612;51.134;17.058;2022-10-31T06:33:04;28.47;;;25.77;;
2610;SDS011;5612;51.134;17.058;2022-10-31T06:35:33;25.00;;;22.60;;
2610;SDS011;5612;51.134;17.058;2022-10-31T06:38:02;25.70;;;23.30;;
2610;SDS011;5612;51.134;17.058;2022-10-31T06:40:31;26.90;;;24.00;;
2610;SDS011;5612;51.134;17.058;2022-10-31T06:43:01;26.10;;;23.50;;
2610;SDS011;5612;51.134;17.058;2022-10-31T06:45:30;24.93;;;22.50;;
2610;SDS011;5612;51.134;17.058;2022-10-31T06:47:59;26.53;;;23.97;;
2610;SDS011;5612;51.134;17.058;2022-10-31T06:50:44;28.73;;;25.37;;
2610;SDS011;5612;51.134;17.058;2022-10-31T06:53:13;28.20;;;25.17;;
2610;SDS011;5612;51.134;17.058;2022-10-31T06:55:42;26.53;;;23.73;;
2610;SDS011;5612;51.134;17.058;2022-10-31T06:58:11;27.20;;;24.33;;
2610;SDS011;5612;51.134;17.058;2022-10-31T07:00:39;27.40;;;24.43;;
2610;SDS011;5612;51.134;17.058;2022-10-31T07:03:09;31.53;;;27.77;;
2610;SDS011;5612;51.134;17.058;2022-10-31T07:05:39;29.10;;;26.17;;
2610;SDS011;5612;51.134;17.058;2022-10-31T07:08:10;28.20;;;24.20;;
2610;SDS011;5612;51.134;17.058;2022-10-31T07:10:41;26.83;;;24.30;;
2610;SDS011;5612;51.134;17.058;2022-10-31T07:13:11;27.20;;;24.57;;
2610;SDS011;5612;51.134;17.058;2022-10-31T07:15:41;28.57;;;25.80;;
2610;SDS011;5612;51.134;17.058;2022-10-31T07:18:11;26.63;;;24.33;;
2610;SDS011;5612;51.134;17.058;2022-10-31T07:20:40;26.27;;;23.77;;
2610;SDS011;5612;51.134;17.058;2022-10-31T07:23:10;23.97;;;21.40;;
2610;SDS011;5612;51.134;17.058;2022-10-31T07:25:39;21.13;;;19.03;;
2610;SDS011;5612;51.134;17.058;2022-10-31T07:28:08;23.33;;;21.00;;
2610;SDS011;5612;51.134;17.058;2022-10-31T07:30:37;20.10;;;18.30;;
2610;SDS011;5612;51.134;17.058;2022-10-31T07:33:06;20.30;;;18.40;;
2610;SDS011;5612;51.134;17.058;2022-10-31T07:35:36;23.60;;;18.70;;
2610;SDS011;5612;51.134;17.058;2022-10-31T07:38:08;22.00;;;17.93;;
2610;SDS011;5612;51.134;17.058;2022-10-31T07:40:39;19.60;;;17.90;;
2610;SDS011;5612;51.134;17.058;2022-10-31T07:43:08;20.67;;;18.57;;
2610;SDS011;5612;51.134;17.058;2022-10-31T07:45:40;21.50;;;16.67;;
2610;SDS011;5612;51.134;17.058;2022-10-31T07:48:08;20.40;;;17.90;;
2610;SDS011;5612;51.134;17.058;2022-10-31T07:50:37;18.10;;;16.30;;
2610;SDS011;5612;51.134;17.058;2022-10-31T07:53:09;17.30;;;15.37;;
2610;SDS011;5612;51.134;17.058;2022-10-31T07:55:42;17.10;;;15.33;;
2610;SDS011;5612;51.134;17.058;2022-10-31T07:58:13;16.10;;;14.63;;
2610;SDS011;5612;51.134;17.058;2022-10-31T08:00:43;21.13;;;15.43;;
2610;SDS011;5612;51.134;17.058;2022-10-31T08:03:15;15.73;;;14.33;;
2610;SDS011;5612;51.134;17.058;2022-10-31T08:05:46;16.97;;;15.23;;
2610;SDS011;5612;51.134;17.058;2022-10-31T08:08:16;60.33;;;53.70;;
2610;SDS011;5612;51.134;17.058;2022-10-31T08:10:46;17.47;;;15.70;;
2610;SDS011;5612;51.134;17.058;2022-10-31T08:13:15;17.17;;;15.50;;
2610;SDS011;5612;51.134;17.058;2022-10-31T08:15:45;15.53;;;13.97;;
2610;SDS011;5612;51.134;17.058;2022-10-31T08:18:17;25.40;;;15.60;;
2610;SDS011;5612;51.134;17.058;2022-10-31T08:20:50;16.87;;;15.17;;
2610;SDS011;5612;51.134;17.058;2022-10-31T08:23:22;16.43;;;14.27;;
2610;SDS011;5612;51.134;17.058;2022-10-31T08:25:53;17.47;;;14.97;;
2610;SDS011;5612;51.134;17.058;2022-10-31T08:28:22;20.37;;;14.57;;
2610;SDS011;5612;51.134;17.058;2022-10-31T08:30:51;15.93;;;12.97;;
2610;SDS011;5612;51.134;17.058;2022-10-31T08:33:21;15.60;;;11.50;;
2610;SDS011;5612;51.134;17.058;2022-10-31T08:35:51;13.80;;;12.47;;
2610;SDS011;5612;51.134;17.058;2022-10-31T08:38:22;11.77;;;10.67;;
2610;SDS011;5612;51.134;17.058;2022-10-31T08:40:53;11.83;;;10.63;;
2610;SDS011;5612;51.134;17.058;2022-10-31T08:43:22;12.80;;;11.60;;
2610;SDS011;5612;51.134;17.058;2022-10-31T08:45:51;12.77;;;11.48;;
2610;SDS011;5612;51.134;17.058;2022-10-31T08:48:21;12.82;;;10.65;;
2610;SDS011;5612;51.134;17.058;2022-10-31T08:50:50;13.15;;;10.63;;
2610;SDS011;5612;51.134;17.058;2022-10-31T08:53:21;14.13;;;11.35;;
2610;SDS011;5612;51.134;17.058;2022-10-31T08:55:50;10.07;;;9.27;;
2610;SDS011;5612;51.134;17.058;2022-10-31T08:58:23;11.02;;;9.85;;
2610;SDS011;5612;51.134;17.058;2022-10-31T09:00:54;10.77;;;9.63;;
2610;SDS011;5612;51.134;17.058;2022-10-31T09:03:30;10.52;;;9.55;;
2610;SDS011;5612;51.134;17.058;2022-10-31T09:06:02;43.15;;;38.70;;
2610;SDS011;5612;51.134;17.058;2022-10-31T09:08:35;12.43;;;11.13;;
2610;SDS011;5612;51.134;17.058;2022-10-31T09:11:05;11.05;;;9.60;;
2610;SDS011;5612;51.134;17.058;2022-10-31T09:13:35;13.15;;;9.15;;
2610;SDS011;5612;51.134;17.058;2022-10-31T09:16:07;8.48;;;7.68;;
2610;SDS011;5612;51.134;17.058;2022-10-31T09:18:35;10.63;;;9.40;;
2610;SDS011;5612;51.134;17.058;2022-10-31T09:21:06;14.68;;;9.30;;
2610;SDS011;5612;51.134;17.058;2022-10-31T09:23:36;9.65;;;8.75;;
2610;SDS011;5612;51.134;17.058;2022-10-31T09:26:05;10.05;;;9.02;;
2610;SDS011;5612;51.134;17.058;2022-10-31T09:28:36;11.80;;;9.52;;
2610;SDS011;5612;51.134;17.058;2022-10-31T09:31:05;9.80;;;8.68;;
2610;SDS011;5612;51.134;17.058;2022-10-31T09:33:34;8.35;;;7.50;;
2610;SDS011;5612;51.134;17.058;2022-10-31T09:36:03;7.97;;;7.32;;
2610;SDS011;5612;51.134;17.058;2022-10-31T09:38:32;8.40;;;7.63;;
2610;SDS011;5612;51.134;17.058;2022-10-31T09:41:03;8.77;;;7.75;;
2610;SDS011;5612;51.134;17.058;2022-10-31T09:43:44;8.65;;;6.88;;
2610;SDS011;5612;51.134;17.058;2022-10-31T09:46:22;8.98;;;7.07;;
2610;SDS011;5612;51.134;17.058;2022-10-31T09:49:03;13.10;;;6.60;;
2610;SDS011;5612;51.134;17.058;2022-10-31T09:51:52;9.10;;;7.13;;
2610;SDS011;5612;51.134;17.058;2022-10-31T09:54:31;7.32;;;6.72;;
2610;SDS011;5612;51.134;17.058;2022-10-31T09:57:13;7.68;;;7.07;;
2610;SDS011;5612;51.134;17.058;2022-10-31T09:59:45;9.15;;;7.53;;
2610;SDS011;5612;51.134;17.058;2022-10-31T10:02:16;7.95;;;7.05;;
2610;SDS011;5612;51.134;17.058;2022-10-31T10:04:53;6.60;;;6.00;;
2610;SDS011;5612;51.134;17.058;2022-10-31T10:07:27;9.88;;;5.32;;
2610;SDS011;5612;51.134;17.058;2022-10-31T10:10:09;7.28;;;5.22;;
2610;SDS011;5612;51.134;17.058;2022-10-31T10:12:47;5.75;;;5.03;;
2610;SDS011;5612;51.134;17.058;2022-10-31T10:15:43;7.75;;;5.32;;
2610;SDS011;5612;51.134;17.058;2022-10-31T10:18:27;5.55;;;5.10;;
2610;SDS011;5612;51.134;17.058;2022-10-31T10:21:11;8.63;;;5.68;;
2610;SDS011;5612;51.134;17.058;2022-10-31T10:23:56;6.13;;;5.72;;
2610;SDS011;5612;51.134;17.058;2022-10-31T10:26:34;8.40;;;4.93;;
2610;SDS011;5612;51.134;17.058;2022-10-31T10:29:09;7.53;;;4.70;;
2610;SDS011;5612;51.134;17.058;2022-10-31T10:31:54;5.43;;;4.93;;
2610;SDS011;5612;51.134;17.058;2022-10-31T10:34:27;7.45;;;5.10;;
2610;SDS011;5612;51.134;17.058;2022-10-31T10:37:01;6.18;;;5.57;;
2610;SDS011;5612;51.134;17.058;2022-10-31T10:39:36;7.15;;;5.22;;
2610;SDS011;5612;51.134;17.058;2022-10-31T10:42:10;5.18;;;4.68;;
2610;SDS011;5612;51.134;17.058;2022-10-31T10:45:09;5.97;;;5.35;;
2610;SDS011;5612;51.134;17.058;2022-10-31T10:48:05;10.55;;;6.57;;
2610;SDS011;5612;51.134;17.058;2022-10-31T10:50:44;6.53;;;4.75;;
2610;SDS011;5612;51.134;17.058;2022-10-31T10:53:20;6.47;;;5.43;;
2610;SDS011;5612;51.134;17.058;2022-10-31T10:56:16;5.65;;;5.25;;
2610;SDS011;5612;51.134;17.058;2022-10-31T10:58:53;6.13;;;5.63;;
2610;SDS011;5612;51.134;17.058;2022-10-31T11:01:23;5.82;;;5.15;;
2610;SDS011;5612;51.134;17.058;2022-10-31T11:03:54;5.55;;;5.05;;
2610;SDS011;5612;51.134;17.058;2022-10-31T11:06:23;6.53;;;5.20;;
2610;SDS011;5612;51.134;17.058;2022-10-31T11:08:53;8.07;;;5.30;;
2610;SDS011;5612;51.134;17.058;2022-10-31T11:11:24;6.88;;;5.38;;
2610;SDS011;5612;51.134;17.058;2022-10-31T11:13:57;10.13;;;5.85;;
2610;SDS011;5612;51.134;17.058;2022-10-31T11:16:33;7.47;;;5.82;;
2610;SDS011;5612;51.134;17.058;2022-10-31T11:19:12;8.00;;;5.05;;
2610;SDS011;5612;51.134;17.058;2022-10-31T11:21:44;9.48;;;5.75;;
2610;SDS011;5612;51.134;17.058;2022-10-31T11:24:20;7.72;;;5.07;;
2610;SDS011;5612;51.134;17.058;2022-10-31T11:26:50;8.50;;;6.40;;
2610;SDS011;5612;51.134;17.058;2022-10-31T11:29:20;8.52;;;5.97;;
2610;SDS011;5612;51.134;17.058;2022-10-31T11:31:52;8.88;;;5.15;;
2610;SDS011;5612;51.134;17.058;2022-10-31T11:34:27;6.72;;;4.35;;
2610;SDS011;5612;51.134;17.058;2022-10-31T11:37:01;6.35;;;5.47;;
2610;SDS011;5612;51.134;17.058;2022-10-31T11:39:32;9.40;;;5.22;;
2610;SDS011;5612;51.134;17.058;2022-10-31T11:42:09;5.30;;;4.90;;
2610;SDS011;5612;51.134;17.058;2022-10-31T11:44:41;8.30;;;5.40;;
2610;SDS011;5612;51.134;17.058;2022-10-31T11:47:12;10.32;;;4.95;;
2610;SDS011;5612;51.134;17.058;2022-10-31T11:49:45;6.22;;;5.32;;
2610;SDS011;5612;51.134;17.058;2022-10-31T11:52:17;11.93;;;5.18;;
2610;SDS011;5612;51.134;17.058;2022-10-31T11:54:48;7.45;;;5.90;;
2610;SDS011;5612;51.134;17.058;2022-10-31T11:57:21;7.93;;;5.22;;
2610;SDS011;5612;51.134;17.058;2022-10-31T11:59:52;9.88;;;5.60;;
2610;SDS011;5612;51.134;17.058;2022-10-31T12:02:22;7.88;;;4.90;;
2610;SDS011;5612;51.134;17.058;2022-10-31T12:05:02;6.13;;;4.60;;
2610;SDS011;5612;51.134;17.058;2022-10-31T12:07:35;5.47;;;4.90;;
2610;SDS011;5612;51.134;17.058;2022-10-31T12:10:05;7.75;;;6.88;;
2610;SDS011;5612;51.134;17.058;2022-10-31T12:12:41;12.25;;;8.05;;
2610;SDS011;5612;51.134;17.058;2022-10-31T12:15:33;7.78;;;5.13;;
2610;SDS011;5612;51.134;17.058;2022-10-31T12:18:13;9.45;;;6.57;;
2610;SDS011;5612;51.134;17.058;2022-10-31T12:21:16;6.55;;;4.70;;
2610;SDS011;5612;51.134;17.058;2022-10-31T12:24:12;7.43;;;6.82;;
2610;SDS011;5612;51.134;17.058;2022-10-31T12:26:53;7.00;;;5.75;;
2610;SDS011;5612;51.134;17.058;2022-10-31T12:29:32;6.25;;;5.65;;
2610;SDS011;5612;51.134;17.058;2022-10-31T12:32:20;7.28;;;5.50;;
2610;SDS011;5612;51.134;17.058;2022-10-31T12:37:54;7.25;;;5.18;;
2610;SDS011;5612;51.134;17.058;2022-10-31T12:40:38;9.63;;;5.40;;
2610;SDS011;5612;51.134;17.058;2022-10-31T12:43:23;5.10;;;4.60;;
2610;SDS011;5612;51.134;17.058;2022-10-31T12:46:03;9.45;;;5.03;;
2610;SDS011;5612;51.134;17.058;2022-10-31T12:51:47;6.60;;;5.00;;
2610;SDS011;5612;51.134;17.058;2022-10-31T12:54:32;9.60;;;7.32;;
2610;SDS011;5612;51.134;17.058;2022-10-31T12:57:16;15.77;;;7.72;;
2610;SDS011;5612;51.134;17.058;2022-10-31T12:59:52;8.75;;;5.90;;
2610;SDS011;5612;51.134;17.058;2022-10-31T13:02:27;8.35;;;5.80;;
2610;SDS011;5612;51.134;17.058;2022-10-31T13:05:01;7.25;;;5.40;;
2610;SDS011;5612;51.134;17.058;2022-10-31T13:07:34;5.97;;;4.50;;
2610;SDS011;5612;51.134;17.058;2022-10-31T13:10:10;9.57;;;8.15;;
2610;SDS011;5612;51.134;17.058;2022-10-31T13:12:46;7.65;;;5.00;;
2610;SDS011;5612;51.134;17.058;2022-10-31T13:15:18;5.85;;;4.80;;
2610;SDS011;5612;51.134;17.058;2022-10-31T13:17:51;7.35;;;5.07;;
2610;SDS011;5612;51.134;17.058;2022-10-31T13:20:25;10.75;;;5.60;;
2610;SDS011;5612;51.134;17.058;2022-10-31T13:22:58;4.90;;;4.43;;
2610;SDS011;5612;51.134;17.058;2022-10-31T13:25:55;5.10;;;4.65;;
2610;SDS011;5612;51.134;17.058;2022-10-31T13:28:28;6.53;;;4.97;;
2610;SDS011;5612;51.134;17.058;2022-10-31T13:31:02;5.97;;;4.47;;
2610;SDS011;5612;51.134;17.058;2022-10-31T13:33:32;8.23;;;4.88;;
2610;SDS011;5612;51.134;17.058;2022-10-31T13:36:11;6.95;;;4.00;;
2610;SDS011;5612;51.134;17.058;2022-10-31T13:38:51;5.05;;;4.55;;
2610;SDS011;5612;51.134;17.058;2022-10-31T13:41:30;7.45;;;5.47;;
2610;SDS011;5612;51.134;17.058;2022-10-31T13:44:08;7.45;;;5.20;;
2610;SDS011;5612;51.134;17.058;2022-10-31T13:46:41;8.57;;;6.07;;
2610;SDS011;5612;51.134;17.058;2022-10-31T13:49:25;8.13;;;5.05;;
2610;SDS011;5612;51.134;17.058;2022-10-31T13:52:05;6.20;;;5.40;;
2610;SDS011;5612;51.134;17.058;2022-10-31T13:54:42;5.35;;;4.90;;
2610;SDS011;5612;51.134;17.058;2022-10-31T13:57:16;6.43;;;5.85;;
2610;SDS011;5612;51.134;17.058;2022-10-31T13:59:47;5.85;;;5.22;;
2610;SDS011;5612;51.134;17.058;2022-10-31T14:02:21;6.07;;;4.40;;
2610;SDS011;5612;51.134;17.058;2022-10-31T14:04:56;7.65;;;4.50;;
2610;SDS011;5612;51.134;17.058;2022-10-31T14:07:28;7.32;;;5.50;;
2610;SDS011;5612;51.134;17.058;2022-10-31T14:09:59;10.90;;;5.10;;
2610;SDS011;5612;51.134;17.058;2022-10-31T14:12:36;8.77;;;4.60;;
2610;SDS011;5612;51.134;17.058;2022-10-31T14:15:13;8.07;;;4.63;;
2610;SDS011;5612;51.134;17.058;2022-10-31T14:17:45;6.60;;;5.70;;
2610;SDS011;5612;51.134;17.058;2022-10-31T14:20:23;11.00;;;5.90;;
2610;SDS011;5612;51.134;17.058;2022-10-31T14:26:16;8.17;;;5.13;;
2610;SDS011;5612;51.134;17.058;2022-10-31T14:28:50;11.40;;;7.63;;
2610;SDS011;5612;51.134;17.058;2022-10-31T14:31:27;8.70;;;5.17;;
2610;SDS011;5612;51.134;17.058;2022-10-31T14:34:06;10.20;;;5.53;;
2610;SDS011;5612;51.134;17.058;2022-10-31T14:36:50;8.70;;;5.83;;
2610;SDS011;5612;51.134;17.058;2022-10-31T14:39:41;5.83;;;5.30;;
2610;SDS011;5612;51.134;17.058;2022-10-31T14:42:25;9.63;;;5.97;;
2610;SDS011;5612;51.134;17.058;2022-10-31T14:45:10;7.93;;;5.70;;
2610;SDS011;5612;51.134;17.058;2022-10-31T14:48:01;7.20;;;6.50;;
2610;SDS011;5612;51.134;17.058;2022-10-31T14:50:42;6.60;;;5.00;;
2610;SDS011;5612;51.134;17.058;2022-10-31T14:53:18;7.07;;;5.30;;
2610;SDS011;5612;51.134;17.058;2022-10-31T14:55:51;8.00;;;6.73;;
2610;SDS011;5612;51.134;17.058;2022-10-31T14:58:22;7.30;;;6.30;;
2610;SDS011;5612;51.134;17.058;2022-10-31T15:00:57;10.63;;;7.03;;
2610;SDS011;5612;51.134;17.058;2022-10-31T15:03:29;10.30;;;6.00;;
2610;SDS011;5612;51.134;17.058;2022-10-31T15:06:00;8.47;;;6.10;;
2610;SDS011;5612;51.134;17.058;2022-10-31T15:08:33;10.30;;;6.60;;
2610;SDS011;5612;51.134;17.058;2022-10-31T15:11:09;6.60;;;5.20;;
2610;SDS011;5612;51.134;17.058;2022-10-31T15:13:43;13.10;;;5.83;;
2610;SDS011;5612;51.134;17.058;2022-10-31T15:16:15;10.53;;;6.57;;
2610;SDS011;5612;51.134;17.058;2022-10-31T15:18:48;8.07;;;6.83;;
2610;SDS011;5612;51.134;17.058;2022-10-31T15:21:21;10.13;;;6.23;;
2610;SDS011;5612;51.134;17.058;2022-10-31T15:23:52;10.03;;;6.37;;
2610;SDS011;5612;51.134;17.058;2022-10-31T15:26:22;7.50;;;6.53;;
2610;SDS011;5612;51.134;17.058;2022-10-31T15:29:00;10.27;;;7.70;;
2610;SDS011;5612;51.134;17.058;2022-10-31T15:31:32;9.67;;;6.40;;